Time;durP1;ratioP1;P1;durP2;ratioP2;P2;SDS_P1;SDS_P2;PMS_P1;PMS_P2;Temp;Humidity;BMP_temperature;BMP_pressure;BME280_temperature;BME280_humidity;BME280_pressure;Samples;Min_cycle;Max_cycle;Signal;HPM_P1;HPM_P2
2021/09/11 00:00:07;;;;;;;12.25;8.98;;;19.30;93.60;;;;;;5028155;28;20025;-67
2021/09/11 00:02:32;;;;;;;11.85;8.95;;;19.30;93.60;;;;;;5025978;28;20385;-67
2021/09/11 00:04:58;;;;;;;14.35;10.18;;;19.30;93.60;;;;;;5031129;28;20036;-67
2021/09/11 00:07:24;;;;;;;13.00;9.27;;;19.30;93.50;;;;;;5027127;28;20108;-67
2021/09/11 00:09:49;;;;;;;10.70;9.55;;;19.30;93.50;;;;;;5020747;28;20025;-67
2021/09/11 00:12:15;;;;;;;11.40;9.00;;;19.30;93.50;;;;;;5027671;28;20033;-67
2021/09/11 00:14:41;;;;;;;10.77;8.55;;;19.30;93.50;;;;;;5028768;28;20104;-67
2021/09/11 00:17:07;;;;;;;13.35;10.43;;;19.30;93.60;;;;;;5030001;28;20057;-66
2021/09/11 00:19:33;;;;;;;11.68;9.80;;;19.20;93.50;;;;;;5029151;28;20084;-67
2021/09/11 00:22:00;;;;;;;14.65;9.35;;;19.20;93.40;;;;;;5030932;28;20026;-67
2021/09/11 00:24:25;;;;;;;11.60;9.10;;;19.20;93.50;;;;;;5036106;28;20053;-66
2021/09/11 00:26:51;;;;;;;9.88;8.88;;;19.20;93.50;;;;;;5028414;28;20025;-67
2021/09/11 00:29:17;;;;;;;13.57;10.70;;;19.20;93.60;;;;;;5029185;28;20025;-67
2021/09/11 00:31:43;;;;;;;12.55;9.88;;;19.10;93.50;;;;;;5028659;28;20401;-67
2021/09/11 00:34:08;;;;;;;14.20;10.43;;;19.10;93.50;;;;;;5026592;28;20052;-67
2021/09/11 00:36:34;;;;;;;12.05;9.35;;;19.00;93.50;;;;;;5028262;28;20108;-67
2021/09/11 00:38:59;;;;;;;11.82;10.07;;;19.00;93.60;;;;;;5028773;28;20112;-67
2021/09/11 00:41:25;;;;;;;11.43;10.00;;;19.00;93.70;;;;;;5031413;28;20044;-67
2021/09/11 00:43:51;;;;;;;12.52;9.77;;;18.90;93.70;;;;;;5027224;28;20113;-67
2021/09/11 00:46:18;;;;;;;10.40;9.23;;;18.90;93.80;;;;;;5028451;28;20037;-66
2021/09/11 00:48:44;;;;;;;14.60;10.32;;;18.90;93.90;;;;;;5030344;28;21759;-67
2021/09/11 00:51:11;;;;;;;10.80;9.45;;;18.90;93.90;;;;;;5015267;28;20109;-67
2021/09/11 00:53:36;;;;;;;13.15;10.15;;;18.90;93.90;;;;;;5027401;28;20033;-67
2021/09/11 00:56:02;;;;;;;13.20;10.50;;;18.90;94.00;;;;;;5011438;28;20447;-67
2021/09/11 00:58:28;;;;;;;13.90;10.95;;;18.90;93.90;;;;;;5012159;28;20033;-67
2021/09/11 01:00:54;;;;;;;13.27;9.98;;;18.90;93.80;;;;;;5026234;28;20021;-67
2021/09/11 01:03:20;;;;;;;13.82;10.30;;;18.80;93.80;;;;;;5025615;28;20029;-67
2021/09/11 01:05:45;;;;;;;10.73;9.63;;;18.80;93.80;;;;;;5033242;28;20061;-67
2021/09/11 01:08:11;;;;;;;14.80;10.88;;;18.80;94.00;;;;;;5027016;28;20025;-66
2021/09/11 01:10:38;;;;;;;12.35;10.73;;;18.80;93.90;;;;;;5017393;28;20409;-67
2021/09/11 01:13:04;;;;;;;12.30;10.00;;;18.80;93.90;;;;;;5024232;28;20032;-67
2021/09/11 01:15:35;;;;;;;13.27;10.25;;;18.80;93.90;;;;;;5010229;28;20033;-67
2021/09/11 01:18:01;;;;;;;14.35;10.88;;;18.80;94.00;;;;;;5023131;28;20049;-67
2021/09/11 01:20:27;;;;;;;13.35;10.13;;;18.70;94.00;;;;;;5027920;28;20040;-67
2021/09/11 01:22:53;;;;;;;12.10;10.13;;;18.70;94.00;;;;;;5026790;28;20040;-66
2021/09/11 01:25:19;;;;;;;12.30;10.55;;;18.70;93.90;;;;;;5026934;28;20121;-67
2021/09/11 01:27:44;;;;;;;11.73;10.05;;;18.70;93.90;;;;;;5029648;28;20039;-67
2021/09/11 01:30:15;;;;;;;12.73;10.90;;;18.70;94.00;;;;;;5030212;28;20057;-67
2021/09/11 01:32:42;;;;;;;12.98;10.93;;;18.60;94.10;;;;;;5027201;28;20026;-67
2021/09/11 01:35:08;;;;;;;13.02;11.02;;;18.60;94.00;;;;;;5012512;28;20432;-67
2021/09/11 01:37:34;;;;;;;11.15;10.02;;;18.60;93.90;;;;;;5031181;28;20065;-67
2021/09/11 01:40:00;;;;;;;10.65;9.43;;;18.60;94.00;;;;;;5029892;28;20353;-66
2021/09/11 01:42:27;;;;;;;10.80;9.00;;;18.60;93.90;;;;;;5032979;28;20033;-67
2021/09/11 01:45:08;;;;;;;12.73;9.48;;;18.60;94.00;;;;;;5013459;28;20029;-67
2021/09/11 01:47:34;;;;;;;12.73;9.45;;;18.60;94.00;;;;;;5028702;28;20025;-67
2021/09/11 01:50:00;;;;;;;12.02;10.02;;;18.60;93.90;;;;;;5030222;28;20033;-66
2021/09/11 01:52:25;;;;;;;11.85;9.63;;;18.50;93.90;;;;;;5031130;28;20037;-67
2021/09/11 01:54:51;;;;;;;11.07;8.57;;;18.50;93.90;;;;;;5029462;28;20686;-67
2021/09/11 01:57:17;;;;;;;9.40;8.38;;;18.50;93.90;;;;;;5031969;28;20022;-67
2021/09/11 01:59:43;;;;;;;8.77;7.88;;;18.50;93.90;;;;;;5030515;28;20036;-67
2021/09/11 02:02:09;;;;;;;10.40;8.43;;;18.50;93.90;;;;;;5030784;28;20729;-67
2021/09/11 02:04:35;;;;;;;8.93;7.40;;;18.50;93.90;;;;;;5013357;28;20037;-67
2021/09/11 02:07:02;;;;;;;8.88;7.07;;;18.50;93.80;;;;;;5028981;28;20035;-67
2021/09/11 02:09:28;;;;;;;7.95;7.05;;;18.40;93.70;;;;;;5025640;28;20033;-67
2021/09/11 02:11:54;;;;;;;7.68;6.82;;;18.40;93.60;;;;;;5022232;28;20489;-67
2021/09/11 02:14:20;;;;;;;7.78;6.97;;;18.40;93.60;;;;;;5012457;28;20071;-67
2021/09/11 02:16:45;;;;;;;10.15;7.97;;;18.30;93.60;;;;;;5030385;28;20119;-67
2021/09/11 02:19:11;;;;;;;9.43;8.30;;;18.30;93.60;;;;;;5036649;28;20479;-67
2021/09/11 02:21:37;;;;;;;8.65;7.45;;;18.30;93.90;;;;;;5045543;28;20059;-66
2021/09/11 02:24:02;;;;;;;9.88;7.88;;;18.30;93.80;;;;;;5012148;28;20033;-66
2021/09/11 02:26:28;;;;;;;9.13;7.95;;;18.30;93.80;;;;;;5014118;28;20064;-66
2021/09/11 02:28:53;;;;;;;9.23;7.75;;;18.30;93.60;;;;;;5013757;28;20033;-67
2021/09/11 02:31:19;;;;;;;9.93;7.85;;;18.30;93.70;;;;;;5030875;28;20044;-67
2021/09/11 02:33:49;;;;;;;8.85;7.65;;;18.30;93.70;;;;;;5030401;28;20447;-67
2021/09/11 02:36:15;;;;;;;10.20;7.68;;;18.30;93.70;;;;;;5013918;28;20187;-67
2021/09/11 02:41:09;;;;;;;9.00;7.93;;;18.30;93.80;;;;;;5007118;28;20081;-66
2021/09/11 02:43:35;;;;;;;9.00;8.10;;;18.30;93.80;;;;;;5010701;28;20034;-66
2021/09/11 02:46:01;;;;;;;9.52;7.53;;;18.30;93.80;;;;;;5009285;28;20037;-66
2021/09/11 02:48:26;;;;;;;8.77;7.50;;;18.30;93.80;;;;;;5011847;28;20427;-66
2021/09/11 02:50:52;;;;;;;8.38;7.53;;;18.30;93.80;;;;;;5009611;28;20034;-66
2021/09/11 02:53:18;;;;;;;8.88;7.97;;;18.30;93.80;;;;;;5011341;28;20155;-66
2021/09/11 02:55:44;;;;;;;11.95;7.22;;;18.30;93.80;;;;;;5010069;28;20034;-66
2021/09/11 02:58:09;;;;;;;8.95;7.25;;;18.40;93.90;;;;;;5009876;28;20487;-66
2021/09/11 03:00:35;;;;;;;7.47;6.72;;;18.40;93.90;;;;;;5009833;28;20026;-66
2021/09/11 03:03:01;;;;;;;8.70;7.25;;;18.40;93.90;;;;;;5010389;28;20072;-66
2021/09/11 03:05:26;;;;;;;7.70;6.43;;;18.40;93.70;;;;;;5008890;28;20057;-66
2021/09/11 03:07:52;;;;;;;7.93;6.80;;;18.30;93.60;;;;;;5009301;28;20034;-66
2021/09/11 03:10:18;;;;;;;10.23;7.90;;;18.30;93.60;;;;;;5008933;28;20030;-66
2021/09/11 03:12:43;;;;;;;8.95;7.50;;;18.30;93.70;;;;;;5010761;28;20077;-66
2021/09/11 03:15:09;;;;;;;9.40;8.40;;;18.30;93.80;;;;;;5011174;28;20026;-65
2021/09/11 03:17:35;;;;;;;9.50;8.50;;;18.30;93.80;;;;;;5007788;28;20102;-65
2021/09/11 03:20:00;;;;;;;12.80;9.50;;;18.30;93.90;;;;;;5009903;28;20059;-66
2021/09/11 03:22:26;;;;;;;10.20;9.10;;;18.30;93.90;;;;;;5008247;28;20032;-66
2021/09/11 03:24:51;;;;;;;12.25;9.68;;;18.30;93.90;;;;;;5007380;28;20026;-66
2021/09/11 03:27:17;;;;;;;11.52;8.98;;;18.30;93.90;;;;;;5009100;28;20037;-66
2021/09/11 03:29:42;;;;;;;12.40;9.80;;;18.30;94.00;;;;;;5009470;28;20132;-66
2021/09/11 03:32:08;;;;;;;11.63;9.63;;;18.30;94.00;;;;;;5007791;28;20030;-66
2021/09/11 03:34:34;;;;;;;10.57;8.52;;;18.30;94.00;;;;;;5010539;28;20038;-65
2021/09/11 03:37:00;;;;;;;10.32;8.68;;;18.30;94.00;;;;;;5006425;28;20026;-66
2021/09/11 03:39:26;;;;;;;13.65;9.20;;;18.40;94.10;;;;;;5009629;28;20084;-66
2021/09/11 03:41:51;;;;;;;9.57;8.55;;;18.40;94.10;;;;;;5008710;28;20026;-66
2021/09/11 03:44:17;;;;;;;10.48;9.38;;;18.40;94.10;;;;;;5007400;28;20026;-66
2021/09/11 03:46:43;;;;;;;12.00;10.05;;;18.40;94.20;;;;;;5009618;28;20025;-66
2021/09/11 03:49:08;;;;;;;13.55;9.80;;;18.40;94.20;;;;;;5009624;28;20048;-65
2021/09/11 03:51:34;;;;;;;9.07;8.15;;;18.40;94.20;;;;;;5008237;28;20037;-65
2021/09/11 03:54:01;;;;;;;10.75;9.50;;;18.40;94.20;;;;;;5007720;28;20076;-65
2021/09/11 03:56:27;;;;;;;10.90;9.35;;;18.40;94.20;;;;;;5008979;28;20022;-66
2021/09/11 03:58:52;;;;;;;9.77;8.80;;;18.40;94.20;;;;;;5007864;28;20470;-66
2021/09/11 04:01:18;;;;;;;10.75;8.82;;;18.40;94.10;;;;;;5007970;28;20076;-65
2021/09/11 04:03:43;;;;;;;12.30;8.52;;;18.40;94.20;;;;;;5006629;28;20030;-66
2021/09/11 04:06:10;;;;;;;12.65;9.30;;;18.40;94.30;;;;;;5008483;28;20035;-65
2021/09/11 04:08:35;;;;;;;10.05;8.50;;;18.40;94.30;;;;;;5006438;28;20136;-66
2021/09/11 04:11:01;;;;;;;9.35;8.45;;;18.40;94.30;;;;;;5008670;28;20129;-65
2021/09/11 04:13:27;;;;;;;11.02;9.10;;;18.40;94.40;;;;;;5009011;28;20108;-65
2021/09/11 04:15:52;;;;;;;10.60;9.13;;;18.40;94.30;;;;;;5006019;28;20076;-67
2021/09/11 04:18:18;;;;;;;11.35;8.82;;;18.40;94.20;;;;;;5009116;28;20030;-65
2021/09/11 04:20:44;;;;;;;13.30;9.48;;;18.30;94.10;;;;;;5009279;28;20040;-66
2021/09/11 04:23:09;;;;;;;10.25;8.75;;;18.30;94.10;;;;;;5009377;28;20410;-66
2021/09/11 04:25:35;;;;;;;11.15;8.60;;;18.30;94.10;;;;;;5003491;28;20105;-66
2021/09/11 04:28:00;;;;;;;12.25;8.98;;;18.20;94.10;;;;;;5007710;28;20072;-67
2021/09/11 04:30:26;;;;;;;11.00;8.80;;;18.20;94.20;;;;;;5006803;28;20049;-67
2021/09/11 04:32:52;;;;;;;10.52;7.90;;;18.20;94.20;;;;;;5009220;28;20064;-66
2021/09/11 04:35:17;;;;;;;8.82;7.90;;;18.20;94.10;;;;;;5007359;28;20025;-66
2021/09/11 04:37:43;;;;;;;8.45;7.45;;;18.20;94.10;;;;;;5009876;28;20021;-65
2021/09/11 04:40:09;;;;;;;9.18;7.93;;;18.20;94.20;;;;;;5007384;28;20117;-67
2021/09/11 04:42:35;;;;;;;9.25;6.88;;;18.20;94.20;;;;;;5007168;28;20038;-66
2021/09/11 04:45:01;;;;;;;7.35;6.40;;;18.20;94.20;;;;;;5008992;28;20379;-66
2021/09/11 04:47:26;;;;;;;8.30;7.47;;;18.20;94.10;;;;;;5008300;28;20026;-67
2021/09/11 04:49:52;;;;;;;8.13;7.28;;;18.20;94.10;;;;;;5010323;28;20442;-66
2021/09/11 04:52:18;;;;;;;10.27;7.35;;;18.10;94.00;;;;;;5009200;28;20029;-65
2021/09/11 04:54:43;;;;;;;7.65;6.85;;;18.10;94.00;;;;;;5009444;28;20505;-66
2021/09/11 04:57:09;;;;;;;7.57;6.72;;;18.00;93.90;;;;;;4990494;28;20045;-67
2021/09/11 04:59:35;;;;;;;8.95;6.63;;;18.00;94.00;;;;;;5008738;28;20034;-67
2021/09/11 05:02:00;;;;;;;7.28;6.55;;;18.00;94.10;;;;;;5007222;28;20041;-65
2021/09/11 05:04:26;;;;;;;7.32;6.57;;;18.00;94.00;;;;;;5012409;28;20156;-64
2021/09/11 05:06:51;;;;;;;8.07;7.00;;;18.00;94.00;;;;;;5010259;28;20045;-67
2021/09/11 05:09:17;;;;;;;7.90;6.63;;;17.90;94.00;;;;;;5013169;28;20029;-66
2021/09/11 05:11:42;;;;;;;6.78;6.10;;;17.90;94.00;;;;;;5012320;28;20033;-65
2021/09/11 05:14:08;;;;;;;6.85;5.80;;;17.90;94.00;;;;;;5010651;28;20355;-65
2021/09/11 05:16:34;;;;;;;7.50;6.30;;;17.80;93.90;;;;;;5008627;28;20137;-67
2021/09/11 05:18:59;;;;;;;6.50;5.80;;;17.80;93.90;;;;;;5013183;28;20028;-67
2021/09/11 05:21:25;;;;;;;6.90;5.93;;;17.80;93.90;;;;;;5013538;28;20017;-67
2021/09/11 05:23:50;;;;;;;6.90;5.90;;;17.70;93.90;;;;;;5012453;28;20030;-65
2021/09/11 05:26:16;;;;;;;6.35;5.70;;;17.70;94.00;;;;;;5005591;28;20465;-65
2021/09/11 05:28:41;;;;;;;7.50;6.63;;;17.70;94.00;;;;;;5006632;28;20497;-66
2021/09/11 05:31:07;;;;;;;6.32;5.70;;;17.70;94.00;;;;;;5013298;28;20040;-66
2021/09/11 05:33:32;;;;;;;18.08;14.32;;;17.70;94.00;;;;;;5008242;28;20037;-65
2021/09/11 05:35:58;;;;;;;7.50;6.53;;;17.60;94.10;;;;;;5012374;28;20510;-67
2021/09/11 05:38:24;;;;;;;8.82;6.80;;;17.60;94.20;;;;;;5016484;28;20045;-67
2021/09/11 05:40:49;;;;;;;6.85;6.15;;;17.60;94.20;;;;;;5016967;28;20374;-66
2021/09/11 05:43:15;;;;;;;6.53;5.78;;;17.60;94.20;;;;;;5009271;28;20057;-66
2021/09/11 05:45:41;;;;;;;6.78;6.00;;;17.60;94.20;;;;;;5010296;28;20052;-65
2021/09/11 05:48:07;;;;;;;6.90;6.18;;;17.60;94.30;;;;;;5008243;28;20080;-66
2021/09/11 05:50:33;;;;;;;10.80;8.80;;;17.70;94.40;;;;;;5011260;28;20038;-68
2021/09/11 05:52:58;;;;;;;6.07;5.38;;;17.70;94.40;;;;;;5011596;28;20100;-67
2021/09/11 05:55:24;;;;;;;8.27;5.50;;;17.70;94.40;;;;;;5007823;28;20125;-67
2021/09/11 05:57:50;;;;;;;6.30;5.70;;;17.70;94.40;;;;;;5012141;28;20037;-67
2021/09/11 06:00:15;;;;;;;6.80;5.43;;;17.70;94.50;;;;;;5011995;28;20030;-66
2021/09/11 06:02:41;;;;;;;9.18;5.93;;;17.70;94.50;;;;;;5009811;28;20036;-66
2021/09/11 06:05:07;;;;;;;6.78;5.85;;;17.70;94.50;;;;;;5012802;28;20030;-67
2021/09/11 06:07:33;;;;;;;6.85;5.30;;;17.80;94.50;;;;;;4994112;28;20034;-67
2021/09/11 06:10:02;;;;;;;7.15;5.88;;;17.80;94.50;;;;;;5017530;28;20022;-66
2021/09/11 06:12:27;;;;;;;9.88;5.65;;;17.80;94.60;;;;;;5010880;28;20492;-67
2021/09/11 06:14:53;;;;;;;6.30;4.97;;;17.80;94.40;;;;;;5010297;28;20029;-67
2021/09/11 06:17:18;;;;;;;7.28;5.30;;;17.70;94.50;;;;;;5011392;28;20018;-65
2021/09/11 06:19:44;;;;;;;9.57;5.80;;;17.80;94.50;;;;;;5012124;28;20108;-65
2021/09/11 06:22:11;;;;;;;7.90;7.10;;;17.80;94.50;;;;;;5011849;28;20029;-66
2021/09/11 06:24:37;;;;;;;6.57;5.88;;;17.80;94.50;;;;;;5011076;28;20529;-65
2021/09/11 06:27:04;;;;;;;8.35;5.95;;;17.70;94.60;;;;;;5011966;28;20034;-66
2021/09/11 06:29:30;;;;;;;6.32;5.70;;;17.80;94.60;;;;;;5005942;28;20034;-66
2021/09/11 06:31:55;;;;;;;8.68;5.88;;;17.80;94.60;;;;;;4998998;28;20040;-66
2021/09/11 06:34:21;;;;;;;7.05;6.20;;;17.70;94.50;;;;;;5011381;28;20022;-66
2021/09/11 06:36:47;;;;;;;7.43;6.05;;;17.70;94.60;;;;;;5011429;28;20037;-66
2021/09/11 06:39:12;;;;;;;7.82;6.20;;;17.70;94.60;;;;;;5011913;28;20381;-65
2021/09/11 06:41:38;;;;;;;8.15;5.80;;;17.70;94.60;;;;;;5010858;28;20174;-67
2021/09/11 06:44:04;;;;;;;6.65;5.35;;;17.80;94.80;;;;;;5010780;28;20033;-66
2021/09/11 06:46:30;;;;;;;5.60;5.05;;;17.80;94.80;;;;;;5011531;28;20121;-66
2021/09/11 06:48:55;;;;;;;6.88;5.90;;;17.80;94.80;;;;;;5010881;28;22219;-66
2021/09/11 06:51:21;;;;;;;6.05;5.40;;;17.90;94.90;;;;;;4998582;28;20057;-65
2021/09/11 06:53:46;;;;;;;6.38;5.78;;;17.90;94.90;;;;;;5010120;28;20045;-67
2021/09/11 06:56:12;;;;;;;7.43;5.93;;;17.90;94.90;;;;;;5012377;28;20022;-67
2021/09/11 06:58:38;;;;;;;6.72;5.80;;;18.00;94.90;;;;;;4992181;28;20032;-67
2021/09/11 07:01:03;;;;;;;6.50;5.85;;;17.90;94.90;;;;;;4993874;28;20018;-66
2021/09/11 07:03:29;;;;;;;8.02;6.80;;;18.00;94.90;;;;;;5010431;28;20509;-65
2021/09/11 07:05:54;;;;;;;7.35;6.18;;;18.00;94.90;;;;;;5011135;28;20030;-66
2021/09/11 07:08:20;;;;;;;6.20;5.60;;;18.00;95.00;;;;;;5011763;28;20390;-66
2021/09/11 07:10:45;;;;;;;6.35;5.20;;;18.10;95.00;;;;;;5011178;28;20591;-66
2021/09/11 07:13:11;;;;;;;7.90;6.00;;;18.10;95.10;;;;;;5010654;28;20474;-67
2021/09/11 07:15:36;;;;;;;5.80;5.30;;;18.10;95.00;;;;;;5011429;28;20065;-66
2021/09/11 07:18:02;;;;;;;5.80;5.20;;;18.10;94.80;;;;;;5011629;28;20026;-66
2021/09/11 07:20:29;;;;;;;5.55;5.00;;;18.10;94.80;;;;;;5011285;28;20101;-66
2021/09/11 07:22:55;;;;;;;9.20;6.43;;;18.20;95.00;;;;;;5010914;28;20026;-67
2021/09/11 07:25:21;;;;;;;5.97;5.20;;;18.20;95.00;;;;;;5010934;28;20034;-68
2021/09/11 07:27:46;;;;;;;6.55;4.97;;;18.20;95.00;;;;;;5011273;28;20022;-68
2021/09/11 07:30:12;;;;;;;5.65;5.10;;;18.20;94.80;;;;;;5011038;28;20544;-67
2021/09/11 07:32:38;;;;;;;8.00;5.03;;;18.20;94.70;;;;;;5010614;28;20382;-65
2021/09/11 07:35:04;;;;;;;5.03;4.53;;;18.20;94.80;;;;;;5010929;28;20034;-67
2021/09/11 07:37:29;;;;;;;9.27;4.78;;;18.20;94.80;;;;;;5011523;28;20014;-67
2021/09/11 07:39:55;;;;;;;5.05;4.20;;;18.20;94.80;;;;;;5010525;28;20112;-66
2021/09/11 07:42:21;;;;;;;5.28;4.65;;;18.20;94.70;;;;;;5010942;28;20034;-68
2021/09/11 07:44:46;;;;;;;7.10;4.68;;;18.20;94.80;;;;;;5009708;28;20144;-66
2021/09/11 07:47:12;;;;;;;4.90;4.13;;;18.20;94.70;;;;;;5001735;28;20018;-67
2021/09/11 07:49:37;;;;;;;5.88;3.90;;;18.10;94.70;;;;;;5008493;28;20049;-71
2021/09/11 07:52:04;;;;;;;4.15;3.72;;;18.10;94.70;;;;;;5009238;28;20359;-68
2021/09/11 07:54:30;;;;;;;6.13;4.10;;;18.10;94.70;;;;;;5009281;28;20050;-66
2021/09/11 07:56:55;;;;;;;4.20;3.80;;;18.20;94.80;;;;;;5009985;28;20391;-67
2021/09/11 07:59:21;;;;;;;3.83;3.28;;;18.20;94.80;;;;;;5010631;28;20025;-67
2021/09/11 08:01:47;;;;;;;3.60;3.30;;;18.30;94.80;;;;;;4993352;28;20083;-68
2021/09/11 08:04:12;;;;;;;4.65;4.07;;;18.30;94.80;;;;;;5009117;28;20033;-69
2021/09/11 08:06:38;;;;;;;5.22;4.00;;;18.30;94.80;;;;;;5010423;28;20037;-68
2021/09/11 08:09:03;;;;;;;3.92;3.53;;;18.30;94.80;;;;;;4992384;28;20080;-67
2021/09/11 08:11:29;;;;;;;5.63;4.70;;;18.30;94.70;;;;;;5010415;28;20449;-66
2021/09/11 08:13:54;;;;;;;6.55;3.72;;;18.30;94.70;;;;;;5008723;28;20029;-68
2021/09/11 08:16:20;;;;;;;4.65;3.90;;;18.30;94.70;;;;;;5013407;28;20025;-67
2021/09/11 08:18:46;;;;;;;5.65;4.43;;;18.40;94.70;;;;;;5009894;28;20030;-67
2021/09/11 08:21:11;;;;;;;5.32;4.75;;;18.40;94.70;;;;;;5009519;28;20057;-67
2021/09/11 08:23:38;;;;;;;5.82;3.88;;;18.40;94.70;;;;;;5008269;28;20038;-65
2021/09/11 08:26:04;;;;;;;5.35;3.92;;;18.40;94.60;;;;;;5009423;28;20049;-67
2021/09/11 08:28:30;;;;;;;5.97;3.88;;;18.40;94.70;;;;;;5007638;28;20088;-67
2021/09/11 08:30:56;;;;;;;4.22;3.67;;;18.40;94.70;;;;;;5005528;28;20049;-67
2021/09/11 08:33:21;;;;;;;6.00;4.35;;;18.40;94.70;;;;;;5008863;28;20419;-66
2021/09/11 08:35:47;;;;;;;7.15;4.70;;;18.50;94.70;;;;;;5010324;28;20445;-70
2021/09/11 08:40:41;;;;;;;5.63;3.95;;;18.50;94.50;;;;;;5028484;28;20053;-66
2021/09/11 08:43:07;;;;;;;5.03;4.30;;;18.50;94.50;;;;;;5028377;28;20472;-68
2021/09/11 08:45:33;;;;;;;5.05;4.30;;;18.50;94.50;;;;;;5010357;28;20033;-66
2021/09/11 08:48:01;;;;;;;4.20;3.80;;;18.60;94.50;;;;;;5028929;28;20025;-66
2021/09/11 08:50:28;;;;;;;6.85;4.22;;;18.60;94.60;;;;;;5029419;28;20026;-66
2021/09/11 08:52:54;;;;;;;6.20;4.47;;;18.60;94.60;;;;;;5028835;28;20057;-67
2021/09/11 08:55:19;;;;;;;5.40;4.70;;;18.70;94.60;;;;;;5029305;28;20095;-66
2021/09/11 08:58:02;;;;;;;4.88;4.38;;;18.80;94.60;;;;;;5028882;28;20468;-66
2021/09/11 09:00:51;;;;;;;4.72;4.22;;;18.80;94.60;;;;;;5029759;28;20021;-67
2021/09/11 09:03:42;;;;;;;7.95;4.72;;;18.80;94.50;;;;;;5029209;28;20068;-66
2021/09/11 09:06:20;;;;;;;6.32;4.25;;;18.90;94.50;;;;;;5025344;28;20220;-66
2021/09/11 09:08:48;;;;;;;4.75;3.92;;;18.90;94.30;;;;;;5028772;28;20067;-66
2021/09/11 09:11:25;;;;;;;5.25;4.00;;;18.80;94.30;;;;;;5030286;28;20026;-66
2021/09/11 09:14:11;;;;;;;5.05;4.13;;;18.80;94.30;;;;;;5026265;28;20025;-66
2021/09/11 09:16:39;;;;;;;5.65;3.90;;;18.90;94.30;;;;;;5030197;28;20053;-67
2021/09/11 09:19:15;;;;;;;6.32;5.30;;;18.90;94.40;;;;;;5029305;28;20406;-66
2021/09/11 09:21:43;;;;;;;5.78;4.32;;;19.00;94.40;;;;;;5030466;28;20022;-69
2021/09/11 09:24:11;;;;;;;5.05;4.30;;;18.90;94.40;;;;;;5027875;28;20037;-69
2021/09/11 09:26:57;;;;;;;5.78;4.45;;;18.90;94.10;;;;;;5011512;28;20060;-70
2021/09/11 09:29:23;;;;;;;5.78;3.88;;;19.00;94.20;;;;;;5021614;28;20025;-69
2021/09/11 09:31:53;;;;;;;4.85;4.25;;;18.90;94.10;;;;;;5030043;28;20037;-69
2021/09/11 09:34:36;;;;;;;4.20;3.90;;;18.90;94.20;;;;;;5028374;28;20053;-69
2021/09/11 09:37:04;;;;;;;4.45;3.88;;;19.00;94.20;;;;;;5028961;28;20010;-69
2021/09/11 09:39:37;;;;;;;5.03;3.35;;;19.00;94.20;;;;;;5029241;28;20064;-69
2021/09/11 09:42:04;;;;;;;5.40;3.85;;;19.00;94.20;;;;;;5028997;28;20032;-69
2021/09/11 09:44:42;;;;;;;4.30;3.90;;;19.10;94.00;;;;;;5027610;28;20492;-70
2021/09/11 09:47:15;;;;;;;5.47;3.70;;;19.10;94.00;;;;;;5028278;28;20032;-69
2021/09/11 09:49:41;;;;;;;4.47;3.60;;;19.10;94.00;;;;;;5014055;28;20053;-70
2021/09/11 09:52:06;;;;;;;4.80;4.00;;;19.10;94.10;;;;;;5032073;28;20036;-70
2021/09/11 09:54:33;;;;;;;3.88;3.58;;;19.20;94.00;;;;;;5014350;28;20026;-69
2021/09/11 09:56:59;;;;;;;5.60;3.58;;;19.30;94.00;;;;;;5021248;28;20493;-71
2021/09/11 09:59:25;;;;;;;3.20;2.88;;;19.40;94.00;;;;;;5014153;28;20074;-71
2021/09/11 10:01:51;;;;;;;3.60;3.30;;;19.50;93.90;;;;;;5032262;28;20096;-67
2021/09/11 10:04:19;;;;;;;6.38;3.33;;;19.70;93.90;;;;;;5031685;28;20030;-70
2021/09/11 10:06:52;;;;;;;4.93;3.30;;;19.80;93.90;;;;;;5032684;28;20036;-67
2021/09/11 10:09:23;;;;;;;5.07;3.22;;;20.00;93.70;;;;;;5031967;28;20033;-67
2021/09/11 10:11:51;;;;;;;3.42;3.13;;;20.10;93.40;;;;;;5033108;28;20022;-68
2021/09/11 10:14:19;;;;;;;3.30;3.00;;;20.20;93.50;;;;;;5032275;28;20060;-67
2021/09/11 10:17:03;;;;;;;3.72;3.00;;;20.20;93.50;;;;;;5032644;28;20109;-67
2021/09/11 10:19:31;;;;;;;2.78;2.58;;;20.30;93.50;;;;;;5032318;28;20144;-67
2021/09/11 10:22:15;;;;;;;3.72;3.08;;;20.50;93.40;;;;;;5032626;28;20025;-67
2021/09/11 10:24:40;;;;;;;2.70;2.50;;;20.60;93.20;;;;;;5014539;28;20103;-66
2021/09/11 10:27:20;;;;;;;5.30;3.47;;;20.60;93.00;;;;;;5013995;28;20536;-65
2021/09/11 10:30:12;;;;;;;2.90;2.50;;;20.60;92.70;;;;;;5032235;28;20061;-66
2021/09/11 10:32:44;;;;;;;;;;;20.50;92.50;;;;;;5023967;28;20523;-66
2021/09/11 10:35:22;;;;;;;3.92;2.75;;;20.40;92.70;;;;;;5032051;28;20376;-66
2021/09/11 10:37:49;;;;;;;2.97;2.65;;;20.40;92.70;;;;;;5032239;28;20053;-66
2021/09/11 10:40:26;;;;;;;3.28;2.47;;;20.50;92.80;;;;;;5032327;28;20726;-66
2021/09/11 10:43:04;;;;;;;3.00;2.70;;;20.60;92.70;;;;;;5031794;28;20393;-66
2021/09/11 10:45:42;;;;;;;11.90;9.73;;;20.80;92.70;;;;;;5032114;28;20025;-66
2021/09/11 10:48:37;;;;;;;2.70;2.50;;;20.90;92.70;;;;;;5031946;28;20049;-67
2021/09/11 10:51:28;;;;;;;2.20;2.10;;;21.10;92.30;;;;;;5009814;28;20492;-65
2021/09/11 10:54:03;;;;;;;3.47;2.30;;;21.30;92.20;;;;;;5012010;28;20088;-67
2021/09/11 10:56:32;;;;;;;4.30;2.60;;;21.40;92.00;;;;;;5012379;28;20052;-66
2021/09/11 10:59:31;;;;;;;2.03;1.90;;;21.60;91.70;;;;;;5012329;28;20018;-66
2021/09/11 11:02:07;;;;;;;4.15;1.98;;;21.70;91.10;;;;;;4979155;28;20034;-66
2021/09/11 11:04:38;;;;;;;4.13;2.58;;;21.70;91.10;;;;;;4994093;28;20030;-66
2021/09/11 11:07:06;;;;;;;2.03;1.83;;;21.90;91.10;;;;;;5008928;28;20200;-66
2021/09/11 11:09:36;;;;;;;2.22;1.85;;;22.00;91.10;;;;;;5031771;28;20423;-66
2021/09/11 11:12:03;;;;;;;2.42;1.90;;;22.20;90.90;;;;;;5014131;28;20033;-67
2021/09/11 11:14:34;;;;;;;2.80;2.10;;;22.40;91.00;;;;;;5031293;28;20480;-66
2021/09/11 11:17:00;;;;;;;2.65;2.00;;;22.60;91.00;;;;;;5014088;28;20637;-67
2021/09/11 11:19:32;;;;;;;2.70;2.28;;;22.80;90.90;;;;;;5031443;28;20389;-66
2021/09/11 11:22:06;;;;;;;2.10;1.90;;;23.10;90.40;;;;;;5031460;28;20040;-66
2021/09/11 11:24:37;;;;;;;2.15;1.92;;;23.40;90.40;;;;;;5031157;28;20023;-66
2021/09/11 11:27:05;;;;;;;3.00;1.83;;;23.60;90.30;;;;;;5031792;28;20018;-67
2021/09/11 11:29:31;;;;;;;3.95;2.20;;;23.90;90.20;;;;;;5030870;28;20481;-67
2021/09/11 11:31:57;;;;;;;2.40;2.20;;;23.90;89.50;;;;;;5013671;28;20029;-67
2021/09/11 11:34:23;;;;;;;2.35;2.15;;;23.80;89.60;;;;;;5030940;28;20026;-66
2021/09/11 11:36:54;;;;;;;25.77;18.35;;;23.80;88.70;;;;;;5030785;28;20099;-67
2021/09/11 11:39:24;;;;;;;3.53;2.70;;;23.60;88.50;;;;;;5031354;28;20397;-66
2021/09/11 11:42:16;;;;;;;2.33;1.95;;;23.60;88.60;;;;;;5031263;28;20021;-66
2021/09/11 11:44:43;;;;;;;3.67;2.25;;;23.50;88.50;;;;;;5028668;28;20041;-66
2021/09/11 11:47:18;;;;;;;2.45;2.17;;;23.30;88.80;;;;;;5031163;28;20040;-66
2021/09/11 11:49:43;;;;;;;4.10;2.20;;;23.30;88.60;;;;;;5030981;28;20358;-67
2021/09/11 11:52:12;;;;;;;3.65;1.92;;;23.20;88.80;;;;;;5028083;28;20041;-67
2021/09/11 11:54:39;;;;;;;2.10;1.90;;;23.10;88.50;;;;;;5027571;28;20033;-66
2021/09/11 11:57:18;;;;;;;2.30;2.08;;;23.00;88.10;;;;;;5030666;28;20025;-66
2021/09/11 11:59:44;;;;;;;2.33;2.13;;;23.00;87.80;;;;;;5030784;28;20470;-66
2021/09/11 12:02:24;;;;;;;4.10;1.75;;;23.10;88.20;;;;;;5030615;28;20032;-67
2021/09/11 12:04:52;;;;;;;3.42;2.00;;;23.10;88.60;;;;;;5030183;28;20026;-67
2021/09/11 12:07:34;;;;;;;3.00;2.03;;;23.10;88.40;;;;;;5030824;28;20049;-67
2021/09/11 12:10:00;;;;;;;2.55;2.30;;;23.10;88.60;;;;;;5030953;28;20068;-67
2021/09/11 12:12:43;;;;;;;2.50;2.25;;;23.10;88.10;;;;;;5030632;28;20033;-66
2021/09/11 12:15:11;;;;;;;3.35;2.60;;;23.10;88.30;;;;;;5029135;28;20325;-66
2021/09/11 12:17:37;;;;;;;2.95;2.42;;;23.00;88.70;;;;;;5030660;28;20173;-66
2021/09/11 12:20:15;;;;;;;20.85;14.88;;;23.10;88.70;;;;;;5030436;28;20022;-66
2021/09/11 12:22:41;;;;;;;4.00;2.35;;;23.30;88.30;;;;;;5010823;28;20026;-66
2021/09/11 12:25:07;;;;;;;2.40;2.20;;;23.40;88.20;;;;;;5010962;28;20026;-67
2021/09/11 12:27:33;;;;;;;1.75;1.65;;;23.50;87.60;;;;;;5021692;28;20040;-66
2021/09/11 12:30:07;;;;;;;2.15;1.95;;;23.60;87.00;;;;;;5030275;28;20033;-67
2021/09/11 12:32:33;;;;;;;3.45;2.13;;;23.50;86.40;;;;;;5030307;28;20018;-67
2021/09/11 12:35:09;;;;;;;3.90;2.17;;;23.50;86.50;;;;;;5029677;28;20028;-67
2021/09/11 12:37:51;;;;;;;2.30;2.00;;;23.50;86.60;;;;;;5010991;28;20018;-66
2021/09/11 12:40:17;;;;;;;;;;;23.40;86.90;;;;;;5011125;28;20033;-66
2021/09/11 12:42:43;;;;;;;3.00;2.42;;;23.40;87.40;;;;;;5010258;28;19928;-66
2021/09/11 12:45:10;;;;;;;3.38;3.15;;;23.40;87.60;;;;;;5012187;28;20377;-67
2021/09/11 12:47:36;;;;;;;3.47;3.10;;;23.50;87.50;;;;;;5010580;28;20025;-67
2021/09/11 12:50:02;;;;;;;3.58;3.10;;;23.50;87.20;;;;;;5010785;28;20109;-66